Aeroporto :
LOGIN :

Iscrizione | Disclaimer

   EN    FR    IT 

 










Sommario :    VFR   VFR Marginale   IFR   IFR Intensivo   IFR Molto Intensivo
Visibilità : 
Base nubi : 
>= 8 km
>= 3000ft
5 / 8 km
1000 / 3000 ft
1500m / 5 km
500 / 1000 ft
800 / 1500m
200 / 500 ft
< 800m
< 200 ft
Simboli :   Temporali  Nebbia  Neve Forte  Precipitazioni Forti  Vento > 20 kt
SIGMETs :   Varie  Temporali  Ghiacco  Turbolenza  Onda orograficha  Ceneri Vulcaniche






- Altitudine del aeroporto : 16 ft
- Codice IATA : LPX


EVLA - Liepaja

ULTIMO METAR :
  • 040950Z AUTO 25017KT 9999 BKN018/// 06/02 Q1019

METARs OBSOLETI :
  • 040920Z AUTO 25016KT 9999 SCT017/// 06/02 Q1018
  • 040850Z AUTO 26014KT 9999 SCT016/// 06/02 Q1018
  • 040820Z AUTO 25014KT 9999 BKN016/// 05/02 Q1017
  • 040750Z AUTO 25014KT 9999 FEW016/// 06/02 Q1017
  • 040720Z AUTO 26012KT 9999 FEW016/// 05/02 Q1016

TAF TAF EVLA
Valido dal 04 a 09 ore il 05 a 09 ore UTC


040803Z 0409/0509 27012KT 9999 SCT030
TEMPO 0409/0415 28017G30KT SCT020CB
TEMPO 0500/0505 3000 BR BKN005



MetMap, La meteo Aeronautica in un colpo d'occhio ! - Copyright ORBIFLY Dicembre 2007 - Disclaimer

ORBIFLY MET'MAP TEAM :

Programmazione e sviluppo : Alexandra Zaïnal
Concezione : Baudouin d'Aumeries
Aiuto per la programmazione : Marc-Olivier Méhu
Supporto tecnico e logistico : Manuel Goepfert
Aiuto per la traduzione : Arnaldo La Scala

Contatto : metmap@orbifly.com




FONTI E CREDITI :

   NOAA